sensor_id;sensor_type;location;lat;lon;timestamp;temperature;humidity
9820;DHT22;4949;48.482;9.206;2023-03-23T00:01:59;14.50;51.30
9820;DHT22;4949;48.482;9.206;2023-03-23T00:06:59;14.50;51.00
9820;DHT22;4949;48.482;9.206;2023-03-23T00:12:03;14.50;51.20
9820;DHT22;4949;48.482;9.206;2023-03-23T00:17:05;14.50;50.40
9820;DHT22;4949;48.482;9.206;2023-03-23T00:22:09;14.60;50.00
9820;DHT22;4949;48.482;9.206;2023-03-23T00:27:12;14.60;49.50
9820;DHT22;4949;48.482;9.206;2023-03-23T00:32:14;14.60;48.90
9820;DHT22;4949;48.482;9.206;2023-03-23T00:37:19;14.70;48.20
9820;DHT22;4949;48.482;9.206;2023-03-23T00:42:23;14.80;47.60
9820;DHT22;4949;48.482;9.206;2023-03-23T00:47:28;14.80;47.40
9820;DHT22;4949;48.482;9.206;2023-03-23T00:52:30;14.90;47.40
9820;DHT22;4949;48.482;9.206;2023-03-23T00:57:31;14.90;47.40
9820;DHT22;4949;48.482;9.206;2023-03-23T01:02:35;14.90;47.30
9820;DHT22;4949;48.482;9.206;2023-03-23T01:07:36;14.90;47.10
9820;DHT22;4949;48.482;9.206;2023-03-23T01:12:39;14.90;47.10
9820;DHT22;4949;48.482;9.206;2023-03-23T01:17:41;14.90;47.20
9820;DHT22;4949;48.482;9.206;2023-03-23T01:22:43;15.00;47.40
9820;DHT22;4949;48.482;9.206;2023-03-23T01:27:46;15.00;48.10
9820;DHT22;4949;48.482;9.206;2023-03-23T01:32:49;14.90;48.00
9820;DHT22;4949;48.482;9.206;2023-03-23T01:37:50;14.90;49.30
9820;DHT22;4949;48.482;9.206;2023-03-23T01:42:58;14.80;50.30
9820;DHT22;4949;48.482;9.206;2023-03-23T01:48:08;14.70;51.60
9820;DHT22;4949;48.482;9.206;2023-03-23T01:53:14;14.50;52.70
9820;DHT22;4949;48.482;9.206;2023-03-23T01:58:20;14.40;52.60
9820;DHT22;4949;48.482;9.206;2023-03-23T02:03:27;14.40;52.10
9820;DHT22;4949;48.482;9.206;2023-03-23T02:08:32;14.30;53.20
9820;DHT22;4949;48.482;9.206;2023-03-23T02:13:35;14.30;52.90
9820;DHT22;4949;48.482;9.206;2023-03-23T02:30:11;14.80;49.60
9820;DHT22;4949;48.482;9.206;2023-03-23T02:35:32;14.90;49.30
9820;DHT22;4949;48.482;9.206;2023-03-23T02:40:49;15.10;49.50
9820;DHT22;4949;48.482;9.206;2023-03-23T02:45:54;15.10;49.50
9820;DHT22;4949;48.482;9.206;2023-03-23T02:50:59;15.20;49.70
9820;DHT22;4949;48.482;9.206;2023-03-23T02:56:04;15.20;49.90
9820;DHT22;4949;48.482;9.206;2023-03-23T03:11:59;15.40;49.00
9820;DHT22;4949;48.482;9.206;2023-03-23T03:17:23;15.50;49.00
9820;DHT22;4949;48.482;9.206;2023-03-23T03:22:28;15.60;48.90
9820;DHT22;4949;48.482;9.206;2023-03-23T03:27:30;15.60;48.50
9820;DHT22;4949;48.482;9.206;2023-03-23T03:32:38;15.50;48.40
9820;DHT22;4949;48.482;9.206;2023-03-23T03:37:49;15.60;48.40
9820;DHT22;4949;48.482;9.206;2023-03-23T03:42:51;15.50;48.30
9820;DHT22;4949;48.482;9.206;2023-03-23T03:47:51;15.50;48.40
9820;DHT22;4949;48.482;9.206;2023-03-23T03:52:52;15.50;48.50
9820;DHT22;4949;48.482;9.206;2023-03-23T03:57:56;15.40;48.70
9820;DHT22;4949;48.482;9.206;2023-03-23T04:03:04;15.40;48.50
9820;DHT22;4949;48.482;9.206;2023-03-23T04:08:06;15.40;48.70
9820;DHT22;4949;48.482;9.206;2023-03-23T04:13:07;15.40;48.50
9820;DHT22;4949;48.482;9.206;2023-03-23T04:18:10;15.40;48.50
9820;DHT22;4949;48.482;9.206;2023-03-23T04:23:12;15.30;48.40
9820;DHT22;4949;48.482;9.206;2023-03-23T04:28:20;15.30;48.70
9820;DHT22;4949;48.482;9.206;2023-03-23T04:33:25;15.20;48.70
9820;DHT22;4949;48.482;9.206;2023-03-23T04:38:28;15.10;49.00
9820;DHT22;4949;48.482;9.206;2023-03-23T04:43:32;15.10;49.20
9820;DHT22;4949;48.482;9.206;2023-03-23T04:48:41;15.00;49.10
9820;DHT22;4949;48.482;9.206;2023-03-23T04:53:45;15.00;49.40
9820;DHT22;4949;48.482;9.206;2023-03-23T04:58:48;15.00;49.40
9820;DHT22;4949;48.482;9.206;2023-03-23T05:03:49;15.00;49.50
9820;DHT22;4949;48.482;9.206;2023-03-23T05:08:50;15.00;49.30
9820;DHT22;4949;48.482;9.206;2023-03-23T05:13:53;15.00;49.20
9820;DHT22;4949;48.482;9.206;2023-03-23T05:18:54;15.00;49.10
9820;DHT22;4949;48.482;9.206;2023-03-23T05:23:57;15.00;48.80
9820;DHT22;4949;48.482;9.206;2023-03-23T05:29:01;15.10;49.00
9820;DHT22;4949;48.482;9.206;2023-03-23T05:34:04;15.10;48.90
9820;DHT22;4949;48.482;9.206;2023-03-23T05:39:04;15.10;48.80
9820;DHT22;4949;48.482;9.206;2023-03-23T05:44:10;15.20;48.90
9820;DHT22;4949;48.482;9.206;2023-03-23T05:49:13;15.20;48.90
9820;DHT22;4949;48.482;9.206;2023-03-23T05:54:19;15.20;48.70
9820;DHT22;4949;48.482;9.206;2023-03-23T05:59:22;15.20;48.50
9820;DHT22;4949;48.482;9.206;2023-03-23T06:04:23;15.20;48.50
9820;DHT22;4949;48.482;9.206;2023-03-23T06:09:27;15.20;48.60
9820;DHT22;4949;48.482;9.206;2023-03-23T06:14:30;15.20;49.10
9820;DHT22;4949;48.482;9.206;2023-03-23T06:19:34;15.20;49.10
9820;DHT22;4949;48.482;9.206;2023-03-23T06:24:35;15.20;49.30
9820;DHT22;4949;48.482;9.206;2023-03-23T06:29:36;15.20;49.60
9820;DHT22;4949;48.482;9.206;2023-03-23T06:34:38;15.20;49.60
9820;DHT22;4949;48.482;9.206;2023-03-23T06:39:43;15.20;49.70
9820;DHT22;4949;48.482;9.206;2023-03-23T06:44:44;15.20;49.90
9820;DHT22;4949;48.482;9.206;2023-03-23T06:49:47;15.20;49.90
9820;DHT22;4949;48.482;9.206;2023-03-23T06:54:49;15.20;50.00
9820;DHT22;4949;48.482;9.206;2023-03-23T06:59:50;15.30;50.10
9820;DHT22;4949;48.482;9.206;2023-03-23T07:04:54;15.30;50.00
9820;DHT22;4949;48.482;9.206;2023-03-23T07:09:55;15.50;49.50
9820;DHT22;4949;48.482;9.206;2023-03-23T07:14:56;15.50;49.10
9820;DHT22;4949;48.482;9.206;2023-03-23T07:19:57;15.70;48.60
9820;DHT22;4949;48.482;9.206;2023-03-23T07:24:58;15.80;48.30
9820;DHT22;4949;48.482;9.206;2023-03-23T07:30:01;15.90;48.00
9820;DHT22;4949;48.482;9.206;2023-03-23T07:35:04;15.90;48.20
9820;DHT22;4949;48.482;9.206;2023-03-23T07:40:05;16.00;48.30
9820;DHT22;4949;48.482;9.206;2023-03-23T07:45:15;16.00;48.60
9820;DHT22;4949;48.482;9.206;2023-03-23T07:50:21;16.00;48.70
9820;DHT22;4949;48.482;9.206;2023-03-23T07:55:26;15.90;49.10
9820;DHT22;4949;48.482;9.206;2023-03-23T08:00:27;15.90;49.20
9820;DHT22;4949;48.482;9.206;2023-03-23T08:05:28;16.00;49.60
9820;DHT22;4949;48.482;9.206;2023-03-23T08:10:36;16.00;49.70
9820;DHT22;4949;48.482;9.206;2023-03-23T08:15:37;16.20;49.60
9820;DHT22;4949;48.482;9.206;2023-03-23T08:20:40;16.30;49.50
9820;DHT22;4949;48.482;9.206;2023-03-23T08:25:43;16.10;50.20
9820;DHT22;4949;48.482;9.206;2023-03-23T08:30:44;16.20;50.50
9820;DHT22;4949;48.482;9.206;2023-03-23T08:35:45;16.20;50.70
9820;DHT22;4949;48.482;9.206;2023-03-23T08:40:45;16.10;51.10
9820;DHT22;4949;48.482;9.206;2023-03-23T08:45:46;16.10;51.50
9820;DHT22;4949;48.482;9.206;2023-03-23T08:50:50;16.20;52.10
9820;DHT22;4949;48.482;9.206;2023-03-23T08:55:52;16.00;52.20
9820;DHT22;4949;48.482;9.206;2023-03-23T09:00:55;16.10;52.50
9820;DHT22;4949;48.482;9.206;2023-03-23T09:06:03;16.10;52.70
9820;DHT22;4949;48.482;9.206;2023-03-23T09:11:08;16.00;53.30
9820;DHT22;4949;48.482;9.206;2023-03-23T09:16:10;16.00;54.00
9820;DHT22;4949;48.482;9.206;2023-03-23T09:21:10;15.90;54.40
9820;DHT22;4949;48.482;9.206;2023-03-23T09:26:12;15.90;55.10
9820;DHT22;4949;48.482;9.206;2023-03-23T09:31:13;16.00;55.10
9820;DHT22;4949;48.482;9.206;2023-03-23T09:36:14;16.20;54.70
9820;DHT22;4949;48.482;9.206;2023-03-23T09:52:09;16.50;54.10
9820;DHT22;4949;48.482;9.206;2023-03-23T10:07:49;16.70;53.70
9820;DHT22;4949;48.482;9.206;2023-03-23T10:13:18;16.80;53.00
9820;DHT22;4949;48.482;9.206;2023-03-23T10:19:32;16.90;53.20
9820;DHT22;4949;48.482;9.206;2023-03-23T10:24:16;17.10;53.00
9820;DHT22;4949;48.482;9.206;2023-03-23T10:29:40;17.10;52.80
9820;DHT22;4949;48.482;9.206;2023-03-23T10:34:49;17.00;52.10
9820;DHT22;4949;48.482;9.206;2023-03-23T10:40:05;16.90;52.10
9820;DHT22;4949;48.482;9.206;2023-03-23T10:45:25;16.90;53.20
9820;DHT22;4949;48.482;9.206;2023-03-23T10:50:32;16.80;54.00
9820;DHT22;4949;48.482;9.206;2023-03-23T10:55:40;16.70;54.10
9820;DHT22;4949;48.482;9.206;2023-03-23T11:00:46;16.60;55.80
9820;DHT22;4949;48.482;9.206;2023-03-23T11:06:02;16.90;55.30
9820;DHT22;4949;48.482;9.206;2023-03-23T11:16:27;17.00;54.40
9820;DHT22;4949;48.482;9.206;2023-03-23T11:21:29;17.10;53.30
9820;DHT22;4949;48.482;9.206;2023-03-23T11:26:34;17.00;52.90
9820;DHT22;4949;48.482;9.206;2023-03-23T11:31:48;17.10;52.10
9820;DHT22;4949;48.482;9.206;2023-03-23T11:37:00;17.10;51.40
9820;DHT22;4949;48.482;9.206;2023-03-23T11:42:16;17.30;51.20
9820;DHT22;4949;48.482;9.206;2023-03-23T11:47:36;17.20;51.30
9820;DHT22;4949;48.482;9.206;2023-03-23T11:58:13;17.80;50.80
9820;DHT22;4949;48.482;9.206;2023-03-23T12:03:33;17.90;50.10
9820;DHT22;4949;48.482;9.206;2023-03-23T12:09:16;17.90;50.40
9820;DHT22;4949;48.482;9.206;2023-03-23T12:14:43;18.00;49.30
9820;DHT22;4949;48.482;9.206;2023-03-23T12:20:05;18.00;49.90
9820;DHT22;4949;48.482;9.206;2023-03-23T12:31:03;18.20;48.40
9820;DHT22;4949;48.482;9.206;2023-03-23T12:53:16;17.90;48.80
9820;DHT22;4949;48.482;9.206;2023-03-23T12:58:24;17.80;48.50
9820;DHT22;4949;48.482;9.206;2023-03-23T13:09:02;17.60;49.20
9820;DHT22;4949;48.482;9.206;2023-03-23T13:20:18;17.90;48.70
9820;DHT22;4949;48.482;9.206;2023-03-23T13:31:24;17.80;49.20
9820;DHT22;4949;48.482;9.206;2023-03-23T13:36:51;17.70;49.30
9820;DHT22;4949;48.482;9.206;2023-03-23T14:02:51;17.90;49.10
9820;DHT22;4949;48.482;9.206;2023-03-23T14:18:39;18.00;48.10
9820;DHT22;4949;48.482;9.206;2023-03-23T14:23:42;17.90;47.40
9820;DHT22;4949;48.482;9.206;2023-03-23T14:28:45;18.00;47.50
9820;DHT22;4949;48.482;9.206;2023-03-23T14:33:51;18.20;46.70
9820;DHT22;4949;48.482;9.206;2023-03-23T14:39:14;18.20;46.90
9820;DHT22;4949;48.482;9.206;2023-03-23T14:44:39;18.10;47.00
9820;DHT22;4949;48.482;9.206;2023-03-23T14:49:43;18.00;47.50
9820;DHT22;4949;48.482;9.206;2023-03-23T14:54:45;18.00;47.70
9820;DHT22;4949;48.482;9.206;2023-03-23T14:59:48;18.10;47.50
9820;DHT22;4949;48.482;9.206;2023-03-23T15:04:56;17.90;47.80
9820;DHT22;4949;48.482;9.206;2023-03-23T15:10:00;17.80;47.90
9820;DHT22;4949;48.482;9.206;2023-03-23T15:15:04;17.70;48.50
9820;DHT22;4949;48.482;9.206;2023-03-23T15:20:10;17.80;48.40
9820;DHT22;4949;48.482;9.206;2023-03-23T15:25:47;17.90;48.40
9820;DHT22;4949;48.482;9.206;2023-03-23T15:30:52;17.80;48.80
9820;DHT22;4949;48.482;9.206;2023-03-23T15:35:56;17.90;48.50
9820;DHT22;4949;48.482;9.206;2023-03-23T15:41:01;18.00;48.30
9820;DHT22;4949;48.482;9.206;2023-03-23T15:51:12;17.60;49.30
9820;DHT22;4949;48.482;9.206;2023-03-23T15:56:13;17.70;49.20
9820;DHT22;4949;48.482;9.206;2023-03-23T16:06:25;17.60;49.50
9820;DHT22;4949;48.482;9.206;2023-03-23T16:11:29;17.70;49.70
9820;DHT22;4949;48.482;9.206;2023-03-23T16:16:46;17.70;49.90
9820;DHT22;4949;48.482;9.206;2023-03-23T16:21:52;17.60;49.70
9820;DHT22;4949;48.482;9.206;2023-03-23T16:26:52;17.70;49.50
9820;DHT22;4949;48.482;9.206;2023-03-23T16:31:53;17.70;49.50
9820;DHT22;4949;48.482;9.206;2023-03-23T16:36:54;17.80;49.50
9820;DHT22;4949;48.482;9.206;2023-03-23T16:41:57;17.90;49.30
9820;DHT22;4949;48.482;9.206;2023-03-23T16:46:58;17.80;49.20
9820;DHT22;4949;48.482;9.206;2023-03-23T16:51:59;17.70;49.50
9820;DHT22;4949;48.482;9.206;2023-03-23T16:56:59;17.70;49.50
9820;DHT22;4949;48.482;9.206;2023-03-23T17:02:00;17.80;49.40
9820;DHT22;4949;48.482;9.206;2023-03-23T17:07:03;17.70;49.30
9820;DHT22;4949;48.482;9.206;2023-03-23T17:12:06;17.60;49.00
9820;DHT22;4949;48.482;9.206;2023-03-23T17:17:07;17.60;49.00
9820;DHT22;4949;48.482;9.206;2023-03-23T17:22:09;17.60;49.10
9820;DHT22;4949;48.482;9.206;2023-03-23T17:27:14;17.50;48.90
9820;DHT22;4949;48.482;9.206;2023-03-23T17:32:18;17.40;49.10
9820;DHT22;4949;48.482;9.206;2023-03-23T17:37:21;17.30;49.20
9820;DHT22;4949;48.482;9.206;2023-03-23T17:42:21;17.30;49.60
9820;DHT22;4949;48.482;9.206;2023-03-23T17:47:24;17.30;49.40
9820;DHT22;4949;48.482;9.206;2023-03-23T17:52:25;17.30;49.40
9820;DHT22;4949;48.482;9.206;2023-03-23T17:57:26;17.30;49.70
9820;DHT22;4949;48.482;9.206;2023-03-23T18:02:27;17.20;49.60
9820;DHT22;4949;48.482;9.206;2023-03-23T18:07:30;17.20;49.60
9820;DHT22;4949;48.482;9.206;2023-03-23T18:12:33;17.20;49.90
9820;DHT22;4949;48.482;9.206;2023-03-23T18:17:37;17.20;49.60
9820;DHT22;4949;48.482;9.206;2023-03-23T18:22:40;17.20;49.60
9820;DHT22;4949;48.482;9.206;2023-03-23T18:27:41;17.20;49.60
9820;DHT22;4949;48.482;9.206;2023-03-23T18:32:46;17.10;49.50
9820;DHT22;4949;48.482;9.206;2023-03-23T18:37:47;17.10;49.40
9820;DHT22;4949;48.482;9.206;2023-03-23T18:42:47;17.10;49.00
9820;DHT22;4949;48.482;9.206;2023-03-23T18:47:51;17.00;49.30
9820;DHT22;4949;48.482;9.206;2023-03-23T18:52:52;17.00;49.10
9820;DHT22;4949;48.482;9.206;2023-03-23T18:57:52;17.10;49.00
9820;DHT22;4949;48.482;9.206;2023-03-23T19:02:53;16.90;49.10
9820;DHT22;4949;48.482;9.206;2023-03-23T19:07:54;16.90;49.20
9820;DHT22;4949;48.482;9.206;2023-03-23T19:12:55;17.00;49.00
9820;DHT22;4949;48.482;9.206;2023-03-23T19:17:58;17.00;48.80
9820;DHT22;4949;48.482;9.206;2023-03-23T19:22:59;17.00;48.70
9820;DHT22;4949;48.482;9.206;2023-03-23T19:28:05;17.00;48.40
9820;DHT22;4949;48.482;9.206;2023-03-23T19:33:08;17.10;48.10
9820;DHT22;4949;48.482;9.206;2023-03-23T19:38:09;17.10;48.40
9820;DHT22;4949;48.482;9.206;2023-03-23T19:43:10;16.90;47.90
9820;DHT22;4949;48.482;9.206;2023-03-23T19:48:11;16.90;47.70
9820;DHT22;4949;48.482;9.206;2023-03-23T19:53:14;16.90;47.80
9820;DHT22;4949;48.482;9.206;2023-03-23T19:58:15;16.90;47.90
9820;DHT22;4949;48.482;9.206;2023-03-23T20:03:16;16.90;47.70
9820;DHT22;4949;48.482;9.206;2023-03-23T20:08:19;17.00;47.20
9820;DHT22;4949;48.482;9.206;2023-03-23T20:13:20;17.20;49.10
9820;DHT22;4949;48.482;9.206;2023-03-23T20:18:21;17.40;49.10
9820;DHT22;4949;48.482;9.206;2023-03-23T20:23:22;17.40;48.80
9820;DHT22;4949;48.482;9.206;2023-03-23T20:28:22;17.30;50.10
9820;DHT22;4949;48.482;9.206;2023-03-23T20:33:25;17.10;50.10
9820;DHT22;4949;48.482;9.206;2023-03-23T20:38:31;17.00;50.20
9820;DHT22;4949;48.482;9.206;2023-03-23T20:43:34;16.90;50.40
9820;DHT22;4949;48.482;9.206;2023-03-23T20:48:36;16.80;50.90
9820;DHT22;4949;48.482;9.206;2023-03-23T20:53:38;16.70;51.20
9820;DHT22;4949;48.482;9.206;2023-03-23T20:58:41;16.70;51.60
9820;DHT22;4949;48.482;9.206;2023-03-23T21:03:42;16.60;51.60
9820;DHT22;4949;48.482;9.206;2023-03-23T21:08:43;16.50;52.00
9820;DHT22;4949;48.482;9.206;2023-03-23T21:13:46;16.40;52.50
9820;DHT22;4949;48.482;9.206;2023-03-23T21:18:47;16.40;52.30
9820;DHT22;4949;48.482;9.206;2023-03-23T21:23:48;16.40;52.30
9820;DHT22;4949;48.482;9.206;2023-03-23T21:28:54;16.30;52.30
9820;DHT22;4949;48.482;9.206;2023-03-23T21:34:01;16.30;52.30
9820;DHT22;4949;48.482;9.206;2023-03-23T21:39:03;16.50;52.40
9820;DHT22;4949;48.482;9.206;2023-03-23T21:44:07;16.30;52.20
9820;DHT22;4949;48.482;9.206;2023-03-23T21:49:10;16.20;52.30
9820;DHT22;4949;48.482;9.206;2023-03-23T21:54:14;16.20;52.30
9820;DHT22;4949;48.482;9.206;2023-03-23T21:59:14;16.20;52.20
9820;DHT22;4949;48.482;9.206;2023-03-23T22:04:16;16.10;52.20
9820;DHT22;4949;48.482;9.206;2023-03-23T22:09:18;16.10;52.30
9820;DHT22;4949;48.482;9.206;2023-03-23T22:14:19;16.10;52.30
9820;DHT22;4949;48.482;9.206;2023-03-23T22:19:20;16.10;53.90
9820;DHT22;4949;48.482;9.206;2023-03-23T22:24:21;16.10;55.40
9820;DHT22;4949;48.482;9.206;2023-03-23T22:29:22;16.00;55.40
9820;DHT22;4949;48.482;9.206;2023-03-23T22:34:23;15.90;56.50
9820;DHT22;4949;48.482;9.206;2023-03-23T22:39:24;15.70;57.40
9820;DHT22;4949;48.482;9.206;2023-03-23T22:44:25;15.60;57.50
9820;DHT22;4949;48.482;9.206;2023-03-23T22:49:26;15.50;57.30
9820;DHT22;4949;48.482;9.206;2023-03-23T22:54:27;15.50;56.90
9820;DHT22;4949;48.482;9.206;2023-03-23T22:59:33;15.50;56.30
9820;DHT22;4949;48.482;9.206;2023-03-23T23:04:36;15.60;55.20
9820;DHT22;4949;48.482;9.206;2023-03-23T23:09:37;15.60;54.40
9820;DHT22;4949;48.482;9.206;2023-03-23T23:14:43;15.60;54.00
9820;DHT22;4949;48.482;9.206;2023-03-23T23:19:45;15.60;53.90
9820;DHT22;4949;48.482;9.206;2023-03-23T23:24:46;15.70;53.60
9820;DHT22;4949;48.482;9.206;2023-03-23T23:29:49;15.70;53.40
9820;DHT22;4949;48.482;9.206;2023-03-23T23:34:50;15.80;53.20
9820;DHT22;4949;48.482;9.206;2023-03-23T23:39:54;15.80;53.40
9820;DHT22;4949;48.482;9.206;2023-03-23T23:44:57;15.80;53.10
9820;DHT22;4949;48.482;9.206;2023-03-23T23:50:01;15.80;53.60
9820;DHT22;4949;48.482;9.206;2023-03-23T23:55:05;15.70;54.20
